Caulfield, Missouri
Current Conditions -  °F | °C
As of 8:53 AM on Friday 19 Dec 2014 (Local Time) from KUNO Reporting Station
Moderate Fog Moderate Fog  
Wind Chill: 34°   Ceiling: 200
Heat Index: 34°   Visibility: 0.25mi
Dew Point: 33°   Wind: 3mph
Humidity: 96%   Direction: 120°ESE
Pressure: 30.27"   Gusts: NA
Location:  36.61°N, 92.1°W
Report Text: KUNO 191453Z AUTO 12003KT 1/4SM FG VV002 01/01 A3027 RMK AO2 SLP259 T00110006 53016
Loading
Personal Weather Stations






























Interactive Weather Map New forecast layout! Learn more

10-Day Weather Forecast

Advertisements
Track Severe Weather on mobile